Time;durP1;ratioP1;P1;durP2;ratioP2;P2;SDS_P1;SDS_P2;PMS_P1;PMS_P2;Temp;Humidity;BMP_temperature;BMP_pressure;BME280_temperature;BME280_humidity;BME280_pressure;Samples;Min_cycle;Max_cycle;Signal;HPM_P1;HPM_P2
2022/06/23 00:01:59;;;;;;;9.90;6.50;;;;;;;12.31;69.79;99606.39;214098;1276;141071;-64
2022/06/23 00:07:20;;;;;;;11.10;6.40;;;;;;;12.29;70.07;99605.51;214503;1277;162566;-66
2022/06/23 00:12:32;;;;;;;6.70;6.20;;;;;;;12.15;69.73;99607.59;214139;1276;141473;-66
2022/06/23 00:17:42;;;;;;;7.90;7.20;;;;;;;12.00;70.02;99608.60;213746;1276;141901;-64
2022/06/23 00:22:51;;;;;;;6.90;5.90;;;;;;;11.90;70.25;99608.48;214947;1277;141171;-66
2022/06/23 00:27:58;;;;;;;8.00;6.80;;;;;;;11.84;70.64;99613.96;214055;1277;141563;-66
2022/06/23 00:33:42;;;;;;;7.40;6.30;;;;;;;11.83;70.51;99603.25;215341;1277;140484;-66
2022/06/23 00:38:47;;;;;;;10.20;6.60;;;;;;;11.88;70.80;99602.80;215005;1276;140643;-66
2022/06/23 00:43:52;;;;;;;15.70;8.60;;;;;;;11.90;71.08;99606.79;215582;1276;141119;-66
2022/06/23 00:49:16;;;;;;;7.10;6.50;;;;;;;11.98;71.42;99609.55;215462;1276;141004;-66
2022/06/23 00:54:32;;;;;;;8.90;6.90;;;;;;;11.99;70.96;99606.83;214476;1277;143476;-65
2022/06/23 00:59:53;;;;;;;7.10;6.50;;;;;;;11.90;70.84;99610.93;214323;1276;141548;-65
2022/06/23 01:05:00;;;;;;;14.70;6.60;;;;;;;11.76;70.93;99610.82;214995;1276;141098;-67
2022/06/23 01:10:45;;;;;;;6.90;5.60;;;;;;;11.70;71.34;99609.71;213272;1276;140976;-66
2022/06/23 01:15:56;;;;;;;11.00;5.40;;;;;;;11.70;71.29;99612.55;214309;1276;141096;-66
2022/06/23 01:21:19;;;;;;;11.80;8.30;;;;;;;11.70;71.35;99616.08;213995;1277;141011;-65
2022/06/23 01:26:23;;;;;;;10.40;6.20;;;;;;;11.71;71.62;99619.55;213963;1277;140235;-65
2022/06/23 01:31:43;;;;;;;7.80;6.60;;;;;;;11.61;71.41;99619.94;213439;1277;140480;-65
2022/06/23 01:37:01;;;;;;;9.30;6.80;;;;;;;11.52;71.82;99623.54;214198;1275;140372;-65
2022/06/23 01:42:18;;;;;;;11.60;7.10;;;;;;;11.49;71.84;99621.05;214019;1275;141699;-67
2022/06/23 01:47:36;;;;;;;7.30;6.50;;;;;;;11.43;71.81;99620.41;213337;1276;142706;-65
2022/06/23 01:52:47;;;;;;;7.40;6.70;;;;;;;11.43;72.15;99626.81;214674;1276;141293;-64
2022/06/23 01:58:02;;;;;;;7.00;6.30;;;;;;;11.39;72.00;99626.05;214192;1276;141912;-66
2022/06/23 02:03:25;;;;;;;7.60;6.40;;;;;;;11.39;72.49;99628.08;214641;1276;140149;-66
2022/06/23 02:09:01;;;;;;;13.10;7.30;;;;;;;11.27;71.96;99632.23;214413;1277;140980;-65
2022/06/23 02:14:41;;;;;;;15.20;7.30;;;;;;;11.19;72.37;99633.14;213487;1277;142489;-66
2022/06/23 02:19:52;;;;;;;8.80;7.50;;;;;;;11.21;72.81;99635.63;213916;1277;141018;-65
2022/06/23 02:25:04;;;;;;;12.80;6.60;;;;;;;11.27;72.76;99642.27;215815;1276;140984;-65
2022/06/23 02:30:12;;;;;;;13.30;6.90;;;;;;;11.20;72.22;99648.32;215433;1276;140600;-65
2022/06/23 02:35:23;;;;;;;9.20;5.80;;;;;;;11.13;72.23;99653.32;215844;1276;141343;-65
2022/06/23 02:40:41;;;;;;;7.80;5.90;;;;;;;11.11;72.58;99659.96;215906;1274;140084;-65
2022/06/23 02:45:58;;;;;;;8.60;7.60;;;;;;;11.10;72.69;99662.08;215699;1276;140745;-65
2022/06/23 02:51:32;;;;;;;8.40;7.30;;;;;;;11.10;72.53;99665.27;213449;1276;142123;-66
2022/06/23 02:56:54;;;;;;;7.90;6.70;;;;;;;11.09;72.72;99665.56;214403;1276;142498;-64
2022/06/23 03:02:16;;;;;;;8.90;6.10;;;;;;;11.10;72.83;99665.33;214330;1276;141711;-65
2022/06/23 03:07:40;;;;;;;8.90;5.60;;;;;;;11.09;72.90;99667.92;214266;1276;141058;-64
2022/06/23 03:12:52;;;;;;;8.40;6.40;;;;;;;11.06;73.23;99680.40;215214;1276;140199;-66
2022/06/23 03:18:10;;;;;;;12.10;7.50;;;;;;;11.18;73.60;99681.90;213253;1276;140814;-65
2022/06/23 03:23:23;;;;;;;15.80;7.80;;;;;;;11.27;73.48;99690.98;213767;1276;141155;-63
2022/06/23 03:28:41;;;;;;;8.80;6.20;;;;;;;11.33;73.46;99697.68;213459;1276;140730;-66
2022/06/23 03:33:52;;;;;;;8.60;6.90;;;;;;;11.49;73.78;99704.86;213357;1276;140909;-66
2022/06/23 03:45:18;;;;;;;9.20;8.40;;;;;;;11.83;74.28;99716.44;213004;1276;140183;-65
2022/06/23 03:50:27;;;;;;;8.40;7.50;;;;;;;12.40;73.93;99717.50;213556;1276;140051;-68
2022/06/23 03:55:41;;;;;;;11.50;6.70;;;;;;;12.66;74.22;99723.34;214396;1277;140579;-66
2022/06/23 04:01:11;;;;;;;8.70;7.10;;;;;;;13.22;73.75;99724.54;214251;1274;142085;-64
2022/06/23 04:06:22;;;;;;;14.50;7.70;;;;;;;13.52;73.73;99723.98;214051;1278;141188;-65
2022/06/23 04:11:46;;;;;;;9.60;7.50;;;;;;;13.80;73.17;99730.06;214204;1277;140907;-66
2022/06/23 04:16:58;;;;;;;8.70;7.80;;;;;;;13.95;73.48;99734.15;215061;1276;142447;-66
2022/06/23 04:22:24;;;;;;;11.60;8.10;;;;;;;14.37;72.96;99740.02;214169;1277;142607;-65
2022/06/23 04:27:37;;;;;;;8.10;6.70;;;;;;;14.78;72.82;99745.88;213733;1276;142172;-64
2022/06/23 04:32:41;;;;;;;8.90;8.00;;;;;;;15.08;72.92;99748.17;213024;1276;142385;-64
2022/06/23 04:38:05;;;;;;;21.70;8.60;;;;;;;16.63;71.46;99750.57;216120;1276;140441;-66
2022/06/23 04:43:45;;;;;;;10.00;8.20;;;;;;;20.15;67.16;99748.73;215919;1276;141711;-67
2022/06/23 04:49:01;;;;;;;7.90;7.10;;;;;;;22.76;64.17;99754.61;215102;1276;141890;-65
2022/06/23 04:54:16;;;;;;;8.40;7.60;;;;;;;25.42;60.13;99763.24;214930;1276;140054;-64
2022/06/23 04:59:49;;;;;;;7.80;6.80;;;;;;;24.85;59.07;99770.60;214405;1276;141882;-64
2022/06/23 05:05:18;;;;;;;10.30;9.20;;;;;;;24.21;58.10;99776.55;214686;1276;141049;-62
2022/06/23 05:10:31;;;;;;;20.20;8.00;;;;;;;25.24;56.30;99789.65;214064;1276;141092;-64
2022/06/23 05:15:48;;;;;;;7.50;6.10;;;;;;;28.99;52.33;99791.02;214614;1276;152749;-63
2022/06/23 05:21:07;;;;;;;6.10;4.60;;;;;;;32.52;48.38;99802.48;213589;1277;140993;-63
2022/06/23 05:26:34;;;;;;;3.60;3.20;;;;;;;35.37;44.22;99811.74;213656;1276;141400;-63
2022/06/23 05:31:40;;;;;;;4.20;3.70;;;;;;;37.63;40.22;99818.31;213554;1276;139996;-64
2022/06/23 05:37:12;;;;;;;5.50;3.30;;;;;;;39.41;37.16;99822.61;214318;1276;139467;-64
2022/06/23 05:42:49;;;;;;;3.20;2.70;;;;;;;41.03;34.16;99822.89;213860;1276;139705;-65
2022/06/23 05:48:07;;;;;;;2.50;2.30;;;;;;;42.35;31.57;99819.59;213403;1276;140278;-65
2022/06/23 05:53:29;;;;;;;3.90;2.10;;;;;;;43.43;29.73;99824.10;214089;1276;140631;-64
2022/06/23 05:58:46;;;;;;;3.00;2.70;;;;;;;44.35;27.77;99824.46;213615;1276;139734;-64
2022/06/23 06:04:47;;;;;;;;;;;;;;;;;;;;;
2022/06/23 06:10:39;;;;;;;3.90;3.00;;;;;;;45.29;24.30;99835.19;215353;1276;139344;-65
2022/06/23 06:16:04;;;;;;;2.30;2.10;;;;;;;45.57;24.30;99828.09;214795;1277;139689;-65
2022/06/23 06:21:16;;;;;;;2.60;2.40;;;;;;;45.22;22.44;99833.70;214500;1276;139952;-67
2022/06/23 06:26:55;;;;;;;;;;;;;;;;;;;;;
2022/06/23 06:32:59;;;;;;;1.80;1.70;;;;;;;45.26;21.91;99845.65;215974;1276;140603;-66
2022/06/23 06:38:35;;;;;;;1.60;1.50;;;;;;;44.68;21.51;99844.09;216120;1275;141411;-66
2022/06/23 06:44:28;;;;;;;4.40;1.50;;;;;;;44.55;21.21;99848.09;215836;1277;141433;-66
2022/06/23 06:49:57;;;;;;;1.70;1.60;;;;;;;44.89;20.91;99853.34;215775;1276;139647;-66
2022/06/23 06:55:28;;;;;;;;;;;;;;;;;;;;;
2022/06/23 07:01:15;;;;;;;1.80;1.70;;;;;;;45.39;20.02;99854.25;215111;1277;139948;-65
2022/06/23 07:06:36;;;;;;;1.10;1.10;;;;;;;45.20;19.71;99857.50;214490;1276;139742;-66
2022/06/23 07:11:56;;;;;;;1.70;1.60;;;;;;;44.99;19.62;99854.84;214579;1277;139543;-66
2022/06/23 07:17:16;;;;;;;1.10;1.10;;;;;;;44.45;19.18;99855.63;214501;1276;139815;-67
2022/06/23 07:22:30;;;;;;;1.70;1.60;;;;;;;43.93;19.45;99859.73;213536;1277;139894;-68
2022/06/23 07:27:44;;;;;;;1.20;1.00;;;;;;;43.21;19.64;99861.13;213202;1276;139346;-67
2022/06/23 07:32:57;;;;;;;2.40;1.20;;;;;;;41.86;20.61;99857.39;214178;1276;140717;-67
2022/06/23 07:38:12;;;;;;;2.70;1.20;;;;;;;40.83;21.23;99863.52;213056;1276;140272;-66
2022/06/23 07:43:21;;;;;;;1.20;1.20;;;;;;;39.70;22.85;99872.52;214091;1276;140023;-66
2022/06/23 07:48:28;;;;;;;1.70;1.40;;;;;;;38.14;22.98;99876.11;214124;1276;142518;-67
2022/06/23 07:53:38;;;;;;;1.60;1.20;;;;;;;37.03;23.97;99872.33;213030;1276;141639;-65
2022/06/23 07:58:49;;;;;;;2.00;1.40;;;;;;;36.18;24.88;99877.40;213786;1276;140830;-66
2022/06/23 08:04:11;;;;;;;1.60;1.30;;;;;;;35.79;25.63;99871.52;212955;1276;139749;-67
2022/06/23 08:09:29;;;;;;;2.60;1.70;;;;;;;35.44;26.30;99876.28;214237;1276;141081;-65
2022/06/23 08:14:42;;;;;;;1.80;1.70;;;;;;;35.03;26.72;99875.27;213300;1277;140232;-66
2022/06/23 08:20:03;;;;;;;1.40;1.30;;;;;;;34.39;27.54;99870.51;212916;1276;140982;-65
2022/06/23 08:25:21;;;;;;;1.70;1.60;;;;;;;33.86;28.33;99870.45;215169;1276;140502;-68
2022/06/23 08:30:48;;;;;;;2.00;1.90;;;;;;;33.00;27.95;99871.13;214156;1276;140605;-65
2022/06/23 08:36:17;;;;;;;5.80;2.20;;;;;;;32.11;28.08;99875.92;215726;1276;140655;-67
2022/06/23 08:41:58;;;;;;;8.50;2.70;;;;;;;31.91;28.80;99881.83;215463;1276;151053;-69
2022/06/23 08:47:36;;;;;;;4.10;2.00;;;;;;;31.89;29.64;99884.56;215675;1276;141040;-68
2022/06/23 08:52:48;;;;;;;3.00;2.10;;;;;;;31.18;28.86;99886.73;215694;1275;140831;-68
2022/06/23 08:57:56;;;;;;;2.90;1.90;;;;;;;30.90;30.68;99879.02;215180;1276;140919;-66
2022/06/23 09:03:04;;;;;;;2.80;2.40;;;;;;;30.73;29.74;99884.31;215149;1276;141089;-65
2022/06/23 09:08:24;;;;;;;1.90;1.80;;;;;;;30.73;30.21;99881.71;214862;1276;140336;-68
2022/06/23 09:14:09;;;;;;;4.30;2.40;;;;;;;30.98;31.23;99880.88;214795;1276;139741;-66
2022/06/23 09:19:36;;;;;;;3.90;2.00;;;;;;;31.54;31.16;99874.23;214579;1276;141757;-64
2022/06/23 09:24:57;;;;;;;2.40;2.30;;;;;;;31.67;30.50;99880.31;214615;1276;141144;-65
2022/06/23 09:30:26;;;;;;;2.10;1.90;;;;;;;31.44;30.25;99880.06;214532;1277;141794;-63
2022/06/23 09:36:00;;;;;;;2.00;1.70;;;;;;;31.10;30.43;99885.19;212935;1277;142678;-65
2022/06/23 09:41:15;;;;;;;1.90;1.80;;;;;;;31.44;30.35;99882.89;214749;1276;139924;-67
2022/06/23 09:46:45;;;;;;;7.70;2.00;;;;;;;31.51;29.99;99882.29;214137;1277;141104;-65
2022/06/23 09:52:10;;;;;;;5.70;2.00;;;;;;;31.68;30.31;99877.99;214298;1276;140942;-67
2022/06/23 09:57:24;;;;;;;;;;;;;;;31.56;29.79;99874.35;215393;1276;139733;-67
2022/06/23 10:02:54;;;;;;;2.40;2.20;;;;;;;31.23;30.27;99874.46;213758;1277;127119;-65
2022/06/23 10:08:27;;;;;;;9.80;2.20;;;;;;;31.30;29.78;99875.61;213912;1277;140709;-64
2022/06/23 10:14:07;;;;;;;3.10;2.20;;;;;;;31.33;29.71;99878.40;214321;1277;140665;-67
2022/06/23 10:20:11;;;;;;;2.20;2.00;;;;;;;31.37;28.82;99884.67;213832;1277;140259;-65
2022/06/23 10:25:25;;;;;;;2.20;2.00;;;;;;;31.47;29.03;99883.89;214758;1277;141146;-68
2022/06/23 10:30:38;;;;;;;2.80;2.10;;;;;;;31.44;28.38;99882.27;215303;1277;140519;-68
2022/06/23 10:36:07;;;;;;;4.90;2.10;;;;;;;31.30;29.20;99878.50;215743;1276;140470;-68
2022/06/23 10:41:47;;;;;;;2.20;2.00;;;;;;;31.19;30.54;99872.44;215968;1276;222047;-68
2022/06/23 10:47:12;;;;;;;2.50;2.20;;;;;;;31.09;29.47;99866.67;215884;1277;140642;-68
2022/06/23 10:52:36;;;;;;;2.80;1.90;;;;;;;30.80;29.83;99860.37;215867;1276;140831;-68
2022/06/23 10:58:07;;;;;;;3.00;1.80;;;;;;;30.63;29.36;99864.08;215517;1275;141844;-68
2022/06/23 11:03:26;;;;;;;2.70;2.50;;;;;;;30.58;29.09;99865.96;215600;1276;140569;-68
2022/06/23 11:08:54;;;;;;;3.90;2.40;;;;;;;30.70;30.00;99869.16;214931;1277;139849;-68
2022/06/23 11:14:24;;;;;;;3.70;2.20;;;;;;;30.68;29.09;99864.08;214833;1277;140938;-66
2022/06/23 11:20:01;;;;;;;4.00;2.00;;;;;;;30.57;29.65;99855.63;213903;1277;139833;-65
2022/06/23 11:25:28;;;;;;;2.30;2.10;;;;;;;30.21;29.56;99856.13;214347;1276;139894;-66
2022/06/23 11:31:00;;;;;;;3.40;2.10;;;;;;;30.35;30.23;99854.42;213899;1277;139822;-68
2022/06/23 11:36:35;;;;;;;2.50;2.20;;;;;;;30.48;30.16;99862.05;213761;1277;139624;-65
2022/06/23 11:41:58;;;;;;;2.40;2.20;;;;;;;30.55;30.27;99866.84;214250;1276;140565;-65
2022/06/23 11:47:12;;;;;;;2.30;2.10;;;;;;;30.44;30.19;99868.83;213574;1277;141728;-66
2022/06/23 11:52:49;;;;;;;1.90;1.80;;;;;;;30.41;30.77;99862.09;214247;1276;139947;-66
2022/06/23 11:58:17;;;;;;;2.90;2.20;;;;;;;30.06;30.54;99856.69;212933;1277;141102;-65
2022/06/23 12:03:49;;;;;;;6.40;2.60;;;;;;;29.88;30.26;99858.98;214447;1276;139562;-66
2022/06/23 12:08:55;;;;;;;3.90;2.40;;;;;;;29.87;30.87;99862.33;214798;1276;139715;-66
2022/06/23 12:14:03;;;;;;;3.80;2.30;;;;;;;29.87;30.43;99862.48;215014;1277;140436;-68
2022/06/23 12:19:14;;;;;;;2.30;2.10;;;;;;;29.72;30.34;99859.33;213192;1277;140690;-67
2022/06/23 12:24:57;;;;;;;3.40;2.40;;;;;;;29.72;31.26;99854.79;213754;1276;139832;-66
2022/06/23 12:30:02;;;;;;;3.30;2.20;;;;;;;29.82;31.01;99855.16;214178;1277;139630;-67
2022/06/23 12:35:21;;;;;;;2.80;2.60;;;;;;;29.59;30.45;99852.45;214808;1276;139820;-67
2022/06/23 12:40:36;;;;;;;4.60;2.40;;;;;;;29.31;31.13;99850.39;215651;1276;140389;-68
2022/06/23 12:45:56;;;;;;;3.70;2.90;;;;;;;29.33;30.81;99850.83;215655;1276;139860;-68
2022/06/23 12:51:37;;;;;;;3.50;2.40;;;;;;;29.57;31.17;99851.80;215976;1276;140452;-68
2022/06/23 12:57:37;;;;;;;4.50;2.50;;;;;;;29.28;30.85;99854.16;214242;1276;140397;-66
2022/06/23 13:02:54;;;;;;;5.40;2.70;;;;;;;28.90;31.60;99845.80;212992;1287;140723;-66
2022/06/23 13:08:08;;;;;;;11.80;3.40;;;;;;;28.94;30.87;99844.48;212959;1276;140659;-65
2022/06/23 13:13:34;;;;;;;6.00;3.00;;;;;;;28.98;31.47;99837.30;214598;1276;208744;-67
2022/06/23 13:18:51;;;;;;;3.30;2.50;;;;;;;29.07;31.18;99831.30;213868;1276;140903;-64
2022/06/23 13:24:01;;;;;;;2.50;2.40;;;;;;;29.04;31.23;99835.48;214518;1276;140400;-65
2022/06/23 13:29:08;;;;;;;2.60;2.40;;;;;;;29.15;31.70;99835.81;214432;1276;143826;-65
2022/06/23 13:34:30;;;;;;;3.70;2.40;;;;;;;29.09;31.65;99828.60;213330;1276;141038;-66
2022/06/23 13:39:43;;;;;;;3.50;2.40;;;;;;;29.00;31.36;99831.63;213074;1276;141317;-65
2022/06/23 13:45:15;;;;;;;6.70;3.20;;;;;;;28.85;31.01;99827.25;213822;1276;140574;-65
2022/06/23 13:50:30;;;;;;;2.60;2.40;;;;;;;28.78;31.07;99826.11;213290;1276;141529;-66
2022/06/23 13:55:44;;;;;;;6.30;2.70;;;;;;;28.75;31.63;99824.23;213237;1276;140235;-65
2022/06/23 14:01:04;;;;;;;2.70;2.60;;;;;;;28.63;31.77;99827.31;214057;1276;140524;-66
2022/06/23 14:06:15;;;;;;;4.20;2.30;;;;;;;28.69;31.27;99818.38;214277;1274;139834;-65
2022/06/23 14:11:34;;;;;;;3.50;2.60;;;;;;;28.67;31.43;99810.17;214918;1276;139882;-65
2022/06/23 14:16:52;;;;;;;2.30;2.20;;;;;;;28.65;31.54;99811.45;210286;1277;3327450;-65
2022/06/23 14:22:12;;;;;;;2.90;2.70;;;;;;;28.58;31.47;99811.66;212907;1276;140016;-65
2022/06/23 14:27:34;;;;;;;2.40;2.20;;;;;;;28.48;31.16;99812.41;214572;1276;140665;-65
2022/06/23 14:32:57;;;;;;;4.10;2.00;;;;;;;28.42;31.74;99810.14;214107;1276;142590;-65
2022/06/23 14:38:41;;;;;;;3.40;2.30;;;;;;;28.34;31.61;99808.31;215691;1276;139941;-65
2022/06/23 14:44:09;;;;;;;2.80;2.50;;;;;;;28.22;31.27;99799.20;215894;1275;139847;-68
2022/06/23 14:49:39;;;;;;;3.30;2.00;;;;;;;28.13;31.56;99800.73;215687;1276;141918;-68
2022/06/23 14:55:21;;;;;;;10.10;2.70;;;;;;;28.03;31.62;99795.54;215774;1276;140322;-68
2022/06/23 15:00:39;;;;;;;5.90;2.50;;;;;;;27.97;31.40;99791.61;215209;1276;140662;-68
2022/06/23 15:05:58;;;;;;;2.50;2.20;;;;;;;27.94;31.88;99790.88;214465;1275;140644;-65
2022/06/23 15:11:16;;;;;;;8.10;2.20;;;;;;;27.89;32.05;99786.19;215591;1276;139700;-65
2022/06/23 15:16:38;;;;;;;2.30;2.20;;;;;;;27.83;32.25;99785.27;215137;1276;140578;-64
2022/06/23 15:27:29;;;;;;;5.00;3.00;;;;;;;27.69;32.17;99787.14;214769;1276;141436;-65
2022/06/23 15:32:58;;;;;;;8.30;2.40;;;;;;;27.58;32.35;99784.83;214039;1276;140097;-65
2022/06/23 15:38:36;;;;;;;3.00;2.60;;;;;;;27.40;32.93;99785.23;213984;1276;140811;-65
2022/06/23 15:44:14;;;;;;;2.20;2.00;;;;;;;27.38;32.97;99787.61;212860;1276;140775;-65
2022/06/23 15:49:36;;;;;;;4.50;2.30;;;;;;;27.30;32.93;99786.57;213645;1276;144624;-65
2022/06/23 15:55:03;;;;;;;2.30;1.70;;;;;;;27.23;32.99;99789.02;213397;1276;152099;-65
2022/06/23 16:00:18;;;;;;;2.90;2.50;;;;;;;27.16;33.08;99785.70;214459;1276;142604;-65
2022/06/23 16:05:25;;;;;;;2.50;1.90;;;;;;;27.06;33.58;99789.07;212993;1277;140805;-67
2022/06/23 16:10:35;;;;;;;2.70;2.50;;;;;;;26.96;33.68;99791.21;213652;1276;142368;-65
2022/06/23 16:15:43;;;;;;;2.90;2.20;;;;;;;26.88;34.11;99792.42;214136;1277;141263;-65
2022/06/23 16:21:05;;;;;;;3.00;2.30;;;;;;;26.80;34.32;99789.76;213519;1276;140963;-67
2022/06/23 16:26:14;;;;;;;64.20;7.10;;;;;;;26.75;34.39;99786.14;215595;1276;141636;-65
2022/06/23 16:31:22;;;;;;;2.80;2.60;;;;;;;26.68;34.77;99786.86;215624;1276;141834;-65
2022/06/23 16:36:56;;;;;;;2.40;2.10;;;;;;;26.61;34.44;99788.44;215697;1276;141560;-65
2022/06/23 16:42:30;;;;;;;6.50;2.80;;;;;;;26.55;34.37;99789.49;215565;1274;140613;-65
2022/06/23 16:47:53;;;;;;;3.10;2.90;;;;;;;26.50;34.60;99791.52;214619;1276;140888;-65
2022/06/23 16:53:12;;;;;;;4.90;2.50;;;;;;;26.40;35.02;99786.95;214423;1276;142562;-65
2022/06/23 16:58:53;;;;;;;3.70;2.70;;;;;;;26.32;35.60;99787.83;214628;1276;141252;-65
2022/06/23 17:04:09;;;;;;;3.40;2.70;;;;;;;26.23;36.03;99795.38;214227;1276;141957;-65
2022/06/23 17:09:23;;;;;;;4.60;2.60;;;;;;;26.09;35.88;99793.87;213819;1276;140694;-65
2022/06/23 17:14:47;;;;;;;2.90;2.40;;;;;;;26.01;36.33;99800.08;214339;1276;140775;-65
2022/06/23 17:19:56;;;;;;;2.40;2.20;;;;;;;25.89;36.42;99795.73;214473;1276;140324;-65
2022/06/23 17:25:04;;;;;;;2.80;2.20;;;;;;;25.77;37.00;99798.75;214839;1276;139553;-65
2022/06/23 17:30:17;;;;;;;6.90;3.10;;;;;;;25.66;37.28;99801.52;213637;1276;139758;-65
2022/06/23 17:35:42;;;;;;;2.20;1.90;;;;;;;25.52;37.71;99803.88;213783;1276;139702;-65
2022/06/23 17:46:23;;;;;;;2.40;2.20;;;;;;;25.18;38.21;99800.53;213596;1276;140159;-65
2022/06/23 17:51:36;;;;;;;10.90;3.00;;;;;;;25.04;39.03;99804.89;213923;1276;140434;-66
2022/06/23 17:57:12;;;;;;;4.00;2.60;;;;;;;24.86;39.82;99805.14;213505;1276;251242;-68
2022/06/23 18:02:36;;;;;;;5.10;2.50;;;;;;;24.66;41.14;99808.42;214456;1276;140036;-65
2022/06/23 18:07:49;;;;;;;4.40;2.30;;;;;;;24.40;41.98;99808.66;214098;1274;139592;-65
2022/06/23 18:12:58;;;;;;;7.10;3.10;;;;;;;24.17;42.83;99808.67;213361;1276;140924;-65
2022/06/23 18:18:14;;;;;;;3.60;2.70;;;;;;;23.91;43.34;99814.67;214715;1276;142404;-65
2022/06/23 18:23:47;;;;;;;19.40;3.10;;;;;;;23.64;43.87;99817.38;214655;1276;140823;-65
2022/06/23 18:29:00;;;;;;;5.90;2.80;;;;;;;23.40;44.70;99822.14;215681;1276;140742;-66
2022/06/23 18:34:37;;;;;;;4.10;2.80;;;;;;;23.18;45.11;99823.02;215711;1276;140983;-65
2022/06/23 18:39:52;;;;;;;3.40;2.80;;;;;;;22.92;45.65;99822.63;215811;1276;140597;-65
2022/06/23 18:45:29;;;;;;;2.70;2.50;;;;;;;22.68;46.10;99832.52;215718;1276;140378;-65
2022/06/23 18:50:38;;;;;;;7.30;3.20;;;;;;;22.43;46.46;99833.17;215735;1276;140133;-66
2022/06/23 18:56:16;;;;;;;5.40;2.70;;;;;;;22.18;47.06;99833.20;214165;1277;140370;-66
2022/06/23 19:01:43;;;;;;;4.40;3.20;;;;;;;21.94;47.67;99839.86;213156;1276;140161;-65
2022/06/23 19:07:04;;;;;;;;;;;;;;;21.67;48.14;99845.24;214378;1276;142481;-66
2022/06/23 19:12:30;;;;;;;7.70;4.00;;;;;;;21.36;48.45;99843.15;214191;1276;127217;-65
2022/06/23 19:17:50;;;;;;;13.90;3.90;;;;;;;21.10;49.19;99851.23;213067;1276;140899;-65
2022/06/23 19:23:14;;;;;;;4.60;3.60;;;;;;;20.87;50.14;99851.23;213635;1276;142217;-68
2022/06/23 19:28:26;;;;;;;5.70;4.30;;;;;;;20.64;50.46;99856.82;213723;1276;141519;-66
2022/06/23 19:33:49;;;;;;;8.50;3.80;;;;;;;20.37;50.95;99855.98;214406;1276;163293;-66
2022/06/23 19:39:02;;;;;;;5.50;3.70;;;;;;;20.11;52.37;99852.16;213161;1276;141293;-65
2022/06/23 19:44:11;;;;;;;5.80;4.10;;;;;;;19.90;53.33;99851.71;214300;1277;142018;-66
2022/06/23 19:49:18;;;;;;;4.70;3.20;;;;;;;19.67;53.33;99849.61;213405;1277;141274;-65
2022/06/23 19:54:49;;;;;;;7.30;4.10;;;;;;;19.43;54.08;99855.21;214243;1276;140915;-65
2022/06/23 20:00:05;;;;;;;13.20;4.90;;;;;;;19.18;54.72;99854.92;213921;1276;140822;-64
2022/06/23 20:05:48;;;;;;;5.00;3.50;;;;;;;18.97;55.17;99855.38;214827;1276;140003;-63
2022/06/23 20:10:58;;;;;;;4.50;3.80;;;;;;;18.74;55.68;99856.75;214945;1276;139643;-65
2022/06/23 20:16:08;;;;;;;10.40;4.20;;;;;;;18.56;56.33;99856.70;214124;1276;140660;-65
2022/06/23 20:21:23;;;;;;;8.90;4.30;;;;;;;18.41;56.63;99860.10;213939;1276;140328;-64
2022/06/23 20:26:47;;;;;;;4.50;4.00;;;;;;;18.30;57.13;99860.05;214920;1276;141587;-64
2022/06/23 20:32:06;;;;;;;11.90;4.90;;;;;;;18.22;57.53;99864.38;214847;1276;141008;-64
2022/06/23 20:37:47;;;;;;;11.20;4.70;;;;;;;18.04;57.73;99864.08;215717;1276;140023;-63
2022/06/23 20:43:25;;;;;;;8.80;5.10;;;;;;;17.86;58.38;99859.81;215531;1276;141062;-62
2022/06/23 20:49:02;;;;;;;11.00;4.90;;;;;;;17.70;58.51;99852.73;215723;1276;140980;-64
2022/06/23 20:54:11;;;;;;;9.20;4.90;;;;;;;17.53;58.99;99854.59;214509;1276;139940;-65
2022/06/23 20:59:45;;;;;;;6.50;5.90;;;;;;;17.42;59.38;99856.73;214612;1276;140188;-65
2022/06/23 21:05:10;;;;;;;9.40;5.10;;;;;;;17.27;59.49;99862.36;212772;1276;140900;-65
2022/06/23 21:10:31;;;;;;;5.50;4.20;;;;;;;16.99;60.26;99863.10;214378;1276;140535;-65
2022/06/23 21:15:52;;;;;;;6.70;4.10;;;;;;;16.88;60.91;99864.52;213902;1276;139744;-65
2022/06/23 21:21:33;;;;;;;6.00;4.30;;;;;;;16.81;61.30;99870.47;213700;1276;141023;-64
2022/06/23 21:26:49;;;;;;;4.70;4.40;;;;;;;16.75;61.51;99869.78;214129;1276;140247;-64
2022/06/23 21:32:00;;;;;;;6.50;5.00;;;;;;;16.67;61.85;99863.97;213621;1277;140983;-65
2022/06/23 21:37:07;;;;;;;12.40;6.80;;;;;;;16.57;61.90;99861.41;214064;1276;143320;-64
2022/06/23 21:42:21;;;;;;;5.90;5.20;;;;;;;16.43;62.17;99860.16;213769;1276;141437;-64
2022/06/23 21:47:28;;;;;;;7.20;5.30;;;;;;;16.31;62.27;99858.16;213270;1276;140934;-63
2022/06/23 21:53:12;;;;;;;5.80;5.20;;;;;;;16.07;62.46;99860.56;213856;1276;140849;-64
2022/06/23 21:58:24;;;;;;;9.50;5.10;;;;;;;15.89;63.18;99865.16;213837;1276;140303;-64
2022/06/23 22:03:41;;;;;;;10.30;5.20;;;;;;;15.80;63.42;99863.65;214102;1276;141359;-64
2022/06/23 22:09:15;;;;;;;7.20;5.80;;;;;;;15.63;63.73;99864.41;213872;1276;141595;-64
2022/06/23 22:14:25;;;;;;;7.50;6.20;;;;;;;15.52;64.23;99869.09;213328;1277;143409;-64
2022/06/23 22:19:55;;;;;;;10.20;5.70;;;;;;;15.43;64.56;99871.09;214634;1276;142835;-65
2022/06/23 22:30:59;;;;;;;7.10;5.30;;;;;;;15.35;65.41;99864.71;215384;1276;141105;-65
2022/06/23 22:36:18;;;;;;;5.50;5.00;;;;;;;15.32;65.20;99872.49;215576;1274;140743;-64
2022/06/23 22:41:23;;;;;;;8.00;5.50;;;;;;;15.14;65.28;99873.06;215262;1276;141063;-65
2022/06/23 22:47:08;;;;;;;7.00;5.00;;;;;;;15.10;65.66;99869.60;215654;1277;163775;-65
2022/06/23 22:52:16;;;;;;;8.80;5.40;;;;;;;15.12;65.65;99872.98;215733;1276;163015;-65
2022/06/23 22:57:41;;;;;;;10.20;7.00;;;;;;;15.04;65.91;99870.69;213276;1277;141721;-65
2022/06/23 23:03:02;;;;;;;7.20;5.70;;;;;;;15.02;66.10;99870.09;213683;1276;141065;-66
2022/06/23 23:08:05;;;;;;;7.40;6.20;;;;;;;14.99;66.12;99872.97;214872;1276;139696;-68
2022/06/23 23:13:12;;;;;;;9.60;7.00;;;;;;;14.92;66.11;99866.23;214297;1277;140580;-65
2022/06/23 23:18:41;;;;;;;8.90;5.70;;;;;;;14.78;66.29;99868.56;213630;1276;142164;-65
2022/06/23 23:24:07;;;;;;;8.90;6.20;;;;;;;14.71;66.62;99865.71;214541;1276;141436;-64
2022/06/23 23:29:36;;;;;;;6.30;5.70;;;;;;;14.61;66.84;99866.20;213905;1276;141571;-64
2022/06/23 23:34:44;;;;;;;7.80;7.10;;;;;;;14.59;67.17;99867.48;213728;1277;141729;-64
2022/06/23 23:40:18;;;;;;;11.70;5.90;;;;;;;14.60;67.36;99871.67;213787;1277;141379;-64
2022/06/23 23:45:24;;;;;;;13.80;7.00;;;;;;;14.37;67.13;99874.74;214469;1277;142655;-65
2022/06/23 23:50:31;;;;;;;7.90;7.00;;;;;;;14.19;67.34;99878.96;213884;1277;141183;-65
2022/06/23 23:55:37;;;;;;;7.10;6.50;;;;;;;14.19;68.02;99875.48;213833;1277;141372;-64
